sensor_id;sensor_type;location;lat;lon;timestamp;pressure;altitude;pressure_sealevel;temperature;humidity
47897;BME280;39629;51.400;5.494;2022-10-19T00:02:34;102726.13;;;4.84;100.00
47897;BME280;39629;51.400;5.494;2022-10-19T00:07:36;102721.22;;;4.90;100.00
47897;BME280;39629;51.400;5.494;2022-10-19T00:12:39;102715.69;;;4.84;100.00
47897;BME280;39629;51.400;5.494;2022-10-19T00:17:41;102714.94;;;5.03;100.00
47897;BME280;39629;51.400;5.494;2022-10-19T00:22:42;102710.44;;;5.00;100.00
47897;BME280;39629;51.400;5.494;2022-10-19T00:27:45;102710.34;;;4.81;100.00
47897;BME280;39629;51.400;5.494;2022-10-19T00:32:48;102708.97;;;4.71;100.00
47897;BME280;39629;51.400;5.494;2022-10-19T00:37:49;102703.50;;;4.66;100.00
47897;BME280;39629;51.400;5.494;2022-10-19T00:42:54;102692.75;;;4.76;100.00
47897;BME280;39629;51.400;5.494;2022-10-19T00:47:57;102711.16;;;4.80;100.00
47897;BME280;39629;51.400;5.494;2022-10-19T00:52:59;102704.59;;;4.88;100.00
47897;BME280;39629;51.400;5.494;2022-10-19T00:58:02;102712.03;;;4.80;100.00
47897;BME280;39629;51.400;5.494;2022-10-19T01:03:04;102715.09;;;4.55;100.00
47897;BME280;39629;51.400;5.494;2022-10-19T01:08:07;102713.94;;;4.50;100.00
47897;BME280;39629;51.400;5.494;2022-10-19T01:13:23;102702.38;;;4.61;100.00
47897;BME280;39629;51.400;5.494;2022-10-19T01:18:34;102700.91;;;4.50;100.00
47897;BME280;39629;51.400;5.494;2022-10-19T01:24:25;102705.09;;;4.46;100.00
47897;BME280;39629;51.400;5.494;2022-10-19T01:29:50;102699.88;;;4.46;100.00
47897;BME280;39629;51.400;5.494;2022-10-19T01:34:57;102696.47;;;4.47;100.00
47897;BME280;39629;51.400;5.494;2022-10-19T01:40:05;102693.13;;;4.33;100.00
47897;BME280;39629;51.400;5.494;2022-10-19T01:45:14;102685.97;;;4.29;100.00
47897;BME280;39629;51.400;5.494;2022-10-19T01:50:22;102696.63;;;4.34;100.00
47897;BME280;39629;51.400;5.494;2022-10-19T01:55:25;102687.06;;;4.34;100.00
47897;BME280;39629;51.400;5.494;2022-10-19T02:00:30;102679.19;;;4.16;100.00
47897;BME280;39629;51.400;5.494;2022-10-19T02:05:35;102672.50;;;4.21;100.00
47897;BME280;39629;51.400;5.494;2022-10-19T02:10:40;102670.06;;;4.24;100.00
47897;BME280;39629;51.400;5.494;2022-10-19T02:15:46;102667.81;;;4.31;100.00
47897;BME280;39629;51.400;5.494;2022-10-19T02:20:51;102655.06;;;4.37;100.00
47897;BME280;39629;51.400;5.494;2022-10-19T02:25:53;102651.06;;;4.43;100.00
47897;BME280;39629;51.400;5.494;2022-10-19T02:31:00;102640.16;;;4.34;100.00
47897;BME280;39629;51.400;5.494;2022-10-19T02:36:02;102637.09;;;4.25;100.00
47897;BME280;39629;51.400;5.494;2022-10-19T02:41:06;102640.81;;;4.30;100.00
47897;BME280;39629;51.400;5.494;2022-10-19T02:46:17;102636.44;;;4.29;100.00
47897;BME280;39629;51.400;5.494;2022-10-19T02:51:32;102628.63;;;4.29;100.00
47897;BME280;39629;51.400;5.494;2022-10-19T02:56:34;102633.50;;;4.23;100.00
47897;BME280;39629;51.400;5.494;2022-10-19T03:01:37;102623.06;;;4.23;100.00
47897;BME280;39629;51.400;5.494;2022-10-19T03:06:39;102629.22;;;4.23;100.00
47897;BME280;39629;51.400;5.494;2022-10-19T03:11:40;102628.63;;;4.13;100.00
47897;BME280;39629;51.400;5.494;2022-10-19T03:16:43;102634.00;;;4.16;100.00
47897;BME280;39629;51.400;5.494;2022-10-19T03:21:45;102642.41;;;4.10;100.00
47897;BME280;39629;51.400;5.494;2022-10-19T03:26:46;102633.59;;;4.08;100.00
47897;BME280;39629;51.400;5.494;2022-10-19T03:31:49;102633.50;;;4.06;100.00
47897;BME280;39629;51.400;5.494;2022-10-19T03:36:51;102632.41;;;4.01;100.00
47897;BME280;39629;51.400;5.494;2022-10-19T03:41:53;102629.78;;;4.01;100.00
47897;BME280;39629;51.400;5.494;2022-10-19T03:46:55;102636.47;;;3.96;100.00
47897;BME280;39629;51.400;5.494;2022-10-19T03:51:57;102620.25;;;4.02;100.00
47897;BME280;39629;51.400;5.494;2022-10-19T03:56:59;102629.13;;;3.89;100.00
47897;BME280;39629;51.400;5.494;2022-10-19T04:02:02;102630.38;;;3.96;100.00
47897;BME280;39629;51.400;5.494;2022-10-19T04:07:04;102631.56;;;4.02;100.00
47897;BME280;39629;51.400;5.494;2022-10-19T04:12:05;102629.94;;;4.04;100.00
47897;BME280;39629;51.400;5.494;2022-10-19T04:17:09;102628.16;;;4.03;100.00
47897;BME280;39629;51.400;5.494;2022-10-19T04:22:11;102618.84;;;4.25;100.00
47897;BME280;39629;51.400;5.494;2022-10-19T04:27:13;102629.09;;;4.22;100.00
47897;BME280;39629;51.400;5.494;2022-10-19T04:32:16;102624.38;;;4.66;100.00
47897;BME280;39629;51.400;5.494;2022-10-19T04:37:17;102626.41;;;4.71;100.00
47897;BME280;39629;51.400;5.494;2022-10-19T04:42:19;102621.69;;;4.64;100.00
47897;BME280;39629;51.400;5.494;2022-10-19T04:47:22;102615.97;;;5.07;100.00
47897;BME280;39629;51.400;5.494;2022-10-19T04:52:23;102623.34;;;5.16;100.00
47897;BME280;39629;51.400;5.494;2022-10-19T04:57:25;102619.13;;;5.00;100.00
47897;BME280;39629;51.400;5.494;2022-10-19T05:02:28;102618.19;;;5.18;100.00
47897;BME280;39629;51.400;5.494;2022-10-19T05:07:29;102618.97;;;5.15;100.00
47897;BME280;39629;51.400;5.494;2022-10-19T05:12:31;102616.06;;;5.09;100.00
47897;BME280;39629;51.400;5.494;2022-10-19T05:17:34;102619.19;;;5.02;100.00
47897;BME280;39629;51.400;5.494;2022-10-19T05:22:36;102608.00;;;4.86;100.00
47897;BME280;39629;51.400;5.494;2022-10-19T05:27:37;102610.84;;;4.91;100.00
47897;BME280;39629;51.400;5.494;2022-10-19T05:32:40;102596.56;;;5.20;100.00
47897;BME280;39629;51.400;5.494;2022-10-19T05:37:42;102592.56;;;5.09;100.00
47897;BME280;39629;51.400;5.494;2022-10-19T05:42:43;102596.13;;;5.29;100.00
47897;BME280;39629;51.400;5.494;2022-10-19T05:47:46;102584.59;;;5.43;100.00
47897;BME280;39629;51.400;5.494;2022-10-19T05:52:48;102590.91;;;5.29;100.00
47897;BME280;39629;51.400;5.494;2022-10-19T05:57:49;102593.59;;;5.31;100.00
47897;BME280;39629;51.400;5.494;2022-10-19T06:02:53;102577.31;;;5.36;100.00
47897;BME280;39629;51.400;5.494;2022-10-19T06:07:54;102564.78;;;5.47;100.00
47897;BME280;39629;51.400;5.494;2022-10-19T06:12:56;102573.59;;;5.31;100.00
47897;BME280;39629;51.400;5.494;2022-10-19T06:17:59;102569.22;;;5.50;100.00
47897;BME280;39629;51.400;5.494;2022-10-19T06:23:00;102564.78;;;5.47;100.00
47897;BME280;39629;51.400;5.494;2022-10-19T06:28:03;102565.34;;;5.59;100.00
47897;BME280;39629;51.400;5.494;2022-10-19T06:33:06;102571.56;;;5.83;100.00
47897;BME280;39629;51.400;5.494;2022-10-19T06:38:08;102573.91;;;5.76;100.00
47897;BME280;39629;51.400;5.494;2022-10-19T06:43:10;102577.63;;;6.01;100.00
47897;BME280;39629;51.400;5.494;2022-10-19T06:48:12;102591.09;;;6.31;100.00
47897;BME280;39629;51.400;5.494;2022-10-19T06:53:14;102580.97;;;6.39;100.00
47897;BME280;39629;51.400;5.494;2022-10-19T06:58:16;102581.34;;;6.68;100.00
47897;BME280;39629;51.400;5.494;2022-10-19T07:03:18;102581.84;;;6.80;100.00
47897;BME280;39629;51.400;5.494;2022-10-19T07:08:20;102573.41;;;6.88;100.00
47897;BME280;39629;51.400;5.494;2022-10-19T07:13:22;102583.41;;;6.98;100.00
47897;BME280;39629;51.400;5.494;2022-10-19T07:18:25;102586.44;;;7.31;100.00
47897;BME280;39629;51.400;5.494;2022-10-19T07:23:28;102590.72;;;7.52;100.00
47897;BME280;39629;51.400;5.494;2022-10-19T07:28:30;102592.63;;;7.79;100.00
47897;BME280;39629;51.400;5.494;2022-10-19T07:33:33;102583.72;;;7.99;100.00
47897;BME280;39629;51.400;5.494;2022-10-19T07:38:36;102579.84;;;8.12;100.00
47897;BME280;39629;51.400;5.494;2022-10-19T07:43:38;102569.63;;;8.22;100.00
47897;BME280;39629;51.400;5.494;2022-10-19T07:48:42;102564.03;;;8.37;100.00
47897;BME280;39629;51.400;5.494;2022-10-19T07:53:44;102565.59;;;8.57;100.00
47897;BME280;39629;51.400;5.494;2022-10-19T07:58:46;102559.47;;;8.84;100.00
47897;BME280;39629;51.400;5.494;2022-10-19T08:03:51;102558.09;;;9.24;100.00
47897;BME280;39629;51.400;5.494;2022-10-19T08:08:53;102558.03;;;9.51;100.00
47897;BME280;39629;51.400;5.494;2022-10-19T08:13:55;102555.38;;;9.80;100.00
47897;BME280;39629;51.400;5.494;2022-10-19T08:19:01;102549.28;;;10.15;100.00
47897;BME280;39629;51.400;5.494;2022-10-19T08:24:03;102535.94;;;10.42;100.00
47897;BME280;39629;51.400;5.494;2022-10-19T08:29:07;102532.59;;;10.49;100.00
47897;BME280;39629;51.400;5.494;2022-10-19T08:34:12;102522.19;;;10.90;100.00
47897;BME280;39629;51.400;5.494;2022-10-19T08:39:13;102519.16;;;11.13;100.00
47897;BME280;39629;51.400;5.494;2022-10-19T08:44:40;102518.53;;;11.23;100.00
47897;BME280;39629;51.400;5.494;2022-10-19T08:49:46;102504.75;;;11.37;100.00
47897;BME280;39629;51.400;5.494;2022-10-19T08:54:50;102506.22;;;11.67;100.00
47897;BME280;39629;51.400;5.494;2022-10-19T08:59:53;102503.38;;;11.57;100.00
47897;BME280;39629;51.400;5.494;2022-10-19T09:05:01;102497.84;;;11.89;100.00
47897;BME280;39629;51.400;5.494;2022-10-19T09:10:15;102495.44;;;12.02;100.00
47897;BME280;39629;51.400;5.494;2022-10-19T09:15:19;102504.78;;;12.35;100.00
47897;BME280;39629;51.400;5.494;2022-10-19T09:20:28;102500.59;;;12.44;100.00
47897;BME280;39629;51.400;5.494;2022-10-19T09:25:32;102512.38;;;12.67;100.00
47897;BME280;39629;51.400;5.494;2022-10-19T09:30:37;102506.00;;;12.52;100.00
47897;BME280;39629;51.400;5.494;2022-10-19T09:35:43;102499.81;;;12.53;100.00
47897;BME280;39629;51.400;5.494;2022-10-19T09:40:46;102488.44;;;12.57;100.00
47897;BME280;39629;51.400;5.494;2022-10-19T09:45:50;102496.25;;;12.48;100.00
47897;BME280;39629;51.400;5.494;2022-10-19T09:50:57;102489.53;;;12.70;100.00
47897;BME280;39629;51.400;5.494;2022-10-19T09:56:03;102466.50;;;12.61;100.00
47897;BME280;39629;51.400;5.494;2022-10-19T10:01:05;102467.13;;;13.06;100.00
47897;BME280;39629;51.400;5.494;2022-10-19T10:06:12;102459.44;;;13.26;100.00
47897;BME280;39629;51.400;5.494;2022-10-19T10:11:21;102470.03;;;13.29;100.00
47897;BME280;39629;51.400;5.494;2022-10-19T10:16:27;102459.56;;;13.36;100.00
47897;BME280;39629;51.400;5.494;2022-10-19T10:21:45;102459.34;;;13.97;100.00
47897;BME280;39629;51.400;5.494;2022-10-19T10:26:50;102453.25;;;14.09;97.43
47897;BME280;39629;51.400;5.494;2022-10-19T10:31:53;102453.88;;;13.83;96.48
47897;BME280;39629;51.400;5.494;2022-10-19T10:36:58;102444.41;;;14.04;97.61
47897;BME280;39629;51.400;5.494;2022-10-19T10:42:04;102447.81;;;13.95;93.98
47897;BME280;39629;51.400;5.494;2022-10-19T10:47:13;102434.88;;;14.30;93.62
47897;BME280;39629;51.400;5.494;2022-10-19T10:52:17;102432.09;;;14.10;85.86
47897;BME280;39629;51.400;5.494;2022-10-19T10:57:20;102437.72;;;14.63;84.96
47897;BME280;39629;51.400;5.494;2022-10-19T11:02:29;102427.84;;;14.33;84.17
47897;BME280;39629;51.400;5.494;2022-10-19T11:07:34;102424.47;;;14.58;81.65
47897;BME280;39629;51.400;5.494;2022-10-19T11:12:39;102401.63;;;14.79;81.54
47897;BME280;39629;51.400;5.494;2022-10-19T11:17:54;102394.47;;;14.64;77.61
47897;BME280;39629;51.400;5.494;2022-10-19T11:23:06;102391.94;;;14.93;77.82
47897;BME280;39629;51.400;5.494;2022-10-19T11:28:19;102368.13;;;15.03;75.62
47897;BME280;39629;51.400;5.494;2022-10-19T11:33:38;102356.63;;;14.94;73.68
47897;BME280;39629;51.400;5.494;2022-10-19T11:38:51;102331.97;;;15.31;74.53
47897;BME280;39629;51.400;5.494;2022-10-19T11:44:19;102324.91;;;15.33;69.93
47897;BME280;39629;51.400;5.494;2022-10-19T11:49:33;102304.59;;;15.55;67.41
47897;BME280;39629;51.400;5.494;2022-10-19T11:54:47;102296.63;;;15.57;68.27
47897;BME280;39629;51.400;5.494;2022-10-19T12:00:03;102294.88;;;15.63;68.03
47897;BME280;39629;51.400;5.494;2022-10-19T12:05:10;102278.94;;;15.62;66.87
47897;BME280;39629;51.400;5.494;2022-10-19T12:10:24;102271.88;;;15.70;68.87
47897;BME280;39629;51.400;5.494;2022-10-19T12:15:31;102266.56;;;15.35;65.71
47897;BME280;39629;51.400;5.494;2022-10-19T12:20:36;102260.38;;;15.48;65.66
47897;BME280;39629;51.400;5.494;2022-10-19T12:25:41;102255.88;;;15.98;63.37
47897;BME280;39629;51.400;5.494;2022-10-19T12:30:44;102244.31;;;16.16;65.81
47897;BME280;39629;51.400;5.494;2022-10-19T12:35:53;102240.91;;;15.69;66.66
47897;BME280;39629;51.400;5.494;2022-10-19T12:41:03;102242.56;;;16.06;64.36
47897;BME280;39629;51.400;5.494;2022-10-19T12:46:12;102222.25;;;15.91;63.08
47897;BME280;39629;51.400;5.494;2022-10-19T12:51:16;102217.75;;;16.17;65.17
47897;BME280;39629;51.400;5.494;2022-10-19T12:56:21;102208.09;;;15.96;64.11
47897;BME280;39629;51.400;5.494;2022-10-19T13:01:25;102208.97;;;15.95;64.29
47897;BME280;39629;51.400;5.494;2022-10-19T13:06:32;102203.72;;;15.74;65.33
47897;BME280;39629;51.400;5.494;2022-10-19T13:17:39;102185.84;;;16.22;65.70
47897;BME280;39629;51.400;5.494;2022-10-19T13:22:44;102183.22;;;16.11;65.46
47897;BME280;39629;51.400;5.494;2022-10-19T13:27:47;102172.69;;;15.93;61.98
47897;BME280;39629;51.400;5.494;2022-10-19T13:32:50;102163.03;;;15.68;61.90
47897;BME280;39629;51.400;5.494;2022-10-19T13:38:18;102156.75;;;15.97;61.40
47897;BME280;39629;51.400;5.494;2022-10-19T13:43:22;102149.69;;;15.98;68.31
47897;BME280;39629;51.400;5.494;2022-10-19T13:48:36;102146.09;;;16.04;77.71
47897;BME280;39629;51.400;5.494;2022-10-19T13:53:42;102139.16;;;15.65;67.10
47897;BME280;39629;51.400;5.494;2022-10-19T13:59:16;102133.81;;;15.76;65.72
47897;BME280;39629;51.400;5.494;2022-10-19T14:04:33;102128.56;;;15.55;65.81
47897;BME280;39629;51.400;5.494;2022-10-19T14:09:48;102134.75;;;15.67;66.70
47897;BME280;39629;51.400;5.494;2022-10-19T14:14:55;102125.94;;;15.56;65.28
47897;BME280;39629;51.400;5.494;2022-10-19T14:19:59;102134.75;;;15.61;66.18
47897;BME280;39629;51.400;5.494;2022-10-19T14:25:04;102124.13;;;15.61;65.26
47897;BME280;39629;51.400;5.494;2022-10-19T14:30:20;102127.63;;;15.76;65.82
47897;BME280;39629;51.400;5.494;2022-10-19T14:35:25;102115.28;;;15.62;61.66
47897;BME280;39629;51.400;5.494;2022-10-19T14:40:30;102103.78;;;15.59;62.72
47897;BME280;39629;51.400;5.494;2022-10-19T14:45:32;102095.88;;;15.45;66.09
47897;BME280;39629;51.400;5.494;2022-10-19T14:50:40;102086.19;;;15.36;66.29
47897;BME280;39629;51.400;5.494;2022-10-19T14:55:43;102084.44;;;15.29;65.96
47897;BME280;39629;51.400;5.494;2022-10-19T15:00:47;102084.44;;;15.32;69.40
47897;BME280;39629;51.400;5.494;2022-10-19T15:05:54;102066.78;;;15.06;67.59
47897;BME280;39629;51.400;5.494;2022-10-19T15:10:57;102071.22;;;14.92;70.58
47897;BME280;39629;51.400;5.494;2022-10-19T15:15:58;102059.75;;;14.67;72.12
47897;BME280;39629;51.400;5.494;2022-10-19T15:21:03;102056.22;;;14.44;71.57
47897;BME280;39629;51.400;5.494;2022-10-19T15:26:14;102053.56;;;14.24;75.15
47897;BME280;39629;51.400;5.494;2022-10-19T15:31:18;102049.13;;;14.12;73.46
47897;BME280;39629;51.400;5.494;2022-10-19T15:36:23;102044.69;;;13.97;74.83
47897;BME280;39629;51.400;5.494;2022-10-19T15:41:27;102034.03;;;13.76;77.26
47897;BME280;39629;51.400;5.494;2022-10-19T15:46:31;102023.41;;;13.67;78.06
47897;BME280;39629;51.400;5.494;2022-10-19T15:51:37;102026.03;;;13.60;78.24
47897;BME280;39629;51.400;5.494;2022-10-19T15:56:43;102021.53;;;13.41;83.25
47897;BME280;39629;51.400;5.494;2022-10-19T16:01:46;102011.78;;;13.27;82.87
47897;BME280;39629;51.400;5.494;2022-10-19T16:06:50;101994.06;;;13.09;86.63
47897;BME280;39629;51.400;5.494;2022-10-19T16:11:52;101987.88;;;13.00;88.77
47897;BME280;39629;51.400;5.494;2022-10-19T16:16:56;101986.03;;;12.89;89.34
47897;BME280;39629;51.400;5.494;2022-10-19T16:21:59;101992.13;;;12.77;91.15
47897;BME280;39629;51.400;5.494;2022-10-19T16:27:01;101984.13;;;12.67;92.53
47897;BME280;39629;51.400;5.494;2022-10-19T16:32:03;101970.75;;;12.45;95.84
47897;BME280;39629;51.400;5.494;2022-10-19T16:37:06;101964.44;;;12.24;100.00
47897;BME280;39629;51.400;5.494;2022-10-19T16:42:07;101959.06;;;12.12;100.00
47897;BME280;39629;51.400;5.494;2022-10-19T16:47:09;101945.75;;;12.01;100.00
47897;BME280;39629;51.400;5.494;2022-10-19T16:52:13;101939.56;;;11.98;100.00
47897;BME280;39629;51.400;5.494;2022-10-19T16:57:14;101957.00;;;11.83;100.00
47897;BME280;39629;51.400;5.494;2022-10-19T17:02:16;101949.00;;;11.72;100.00
47897;BME280;39629;51.400;5.494;2022-10-19T17:07:19;101943.66;;;11.65;100.00
47897;BME280;39629;51.400;5.494;2022-10-19T17:12:21;101942.59;;;11.50;100.00
47897;BME280;39629;51.400;5.494;2022-10-19T17:17:22;101934.59;;;11.41;100.00
47897;BME280;39629;51.400;5.494;2022-10-19T17:22:25;101932.81;;;11.37;100.00
47897;BME280;39629;51.400;5.494;2022-10-19T17:27:27;101934.41;;;11.24;100.00
47897;BME280;39629;51.400;5.494;2022-10-19T17:32:28;101929.97;;;11.20;100.00
47897;BME280;39629;51.400;5.494;2022-10-19T17:37:31;101921.19;;;11.19;100.00
47897;BME280;39629;51.400;5.494;2022-10-19T17:42:33;101924.81;;;11.31;100.00
47897;BME280;39629;51.400;5.494;2022-10-19T17:47:36;101915.94;;;11.22;100.00
47897;BME280;39629;51.400;5.494;2022-10-19T17:52:38;101933.53;;;11.23;100.00
47897;BME280;39629;51.400;5.494;2022-10-19T17:57:40;101942.25;;;11.19;100.00
47897;BME280;39629;51.400;5.494;2022-10-19T18:02:43;101931.69;;;11.16;100.00
47897;BME280;39629;51.400;5.494;2022-10-19T18:07:46;101929.94;;;11.18;100.00
47897;BME280;39629;51.400;5.494;2022-10-19T18:12:48;101931.72;;;11.19;100.00
47897;BME280;39629;51.400;5.494;2022-10-19T18:17:50;101923.69;;;11.10;100.00
47897;BME280;39629;51.400;5.494;2022-10-19T18:22:53;101911.34;;;11.07;100.00
47897;BME280;39629;51.400;5.494;2022-10-19T18:27:54;101901.56;;;10.96;100.00
47897;BME280;39629;51.400;5.494;2022-10-19T18:32:56;101921.69;;;10.90;100.00
47897;BME280;39629;51.400;5.494;2022-10-19T18:38:00;101929.41;;;10.80;100.00
47897;BME280;39629;51.400;5.494;2022-10-19T18:43:02;101923.28;;;10.79;100.00
47897;BME280;39629;51.400;5.494;2022-10-19T18:48:04;101903.00;;;10.72;100.00
47897;BME280;39629;51.400;5.494;2022-10-19T18:53:07;101886.13;;;10.59;100.00
47897;BME280;39629;51.400;5.494;2022-10-19T18:58:09;101872.06;;;10.55;100.00
47897;BME280;39629;51.400;5.494;2022-10-19T19:03:10;101888.66;;;10.51;100.00
47897;BME280;39629;51.400;5.494;2022-10-19T19:08:14;101871.84;;;10.42;100.00
47897;BME280;39629;51.400;5.494;2022-10-19T19:13:15;101859.72;;;10.51;100.00
47897;BME280;39629;51.400;5.494;2022-10-19T19:18:17;101857.75;;;10.38;100.00
47897;BME280;39629;51.400;5.494;2022-10-19T19:23:20;101849.75;;;10.29;100.00
47897;BME280;39629;51.400;5.494;2022-10-19T19:28:21;101831.22;;;10.21;100.00
47897;BME280;39629;51.400;5.494;2022-10-19T19:33:23;101817.03;;;10.10;100.00
47897;BME280;39629;51.400;5.494;2022-10-19T19:38:26;101808.28;;;10.11;100.00
47897;BME280;39629;51.400;5.494;2022-10-19T19:43:30;101802.91;;;10.03;100.00
47897;BME280;39629;51.400;5.494;2022-10-19T19:48:31;101792.41;;;10.06;100.00
47897;BME280;39629;51.400;5.494;2022-10-19T19:53:34;101787.97;;;10.02;100.00
47897;BME280;39629;51.400;5.494;2022-10-19T19:58:37;101787.09;;;10.01;100.00
47897;BME280;39629;51.400;5.494;2022-10-19T20:03:40;101775.63;;;9.98;100.00
47897;BME280;39629;51.400;5.494;2022-10-19T20:08:43;101773.06;;;10.01;100.00
47897;BME280;39629;51.400;5.494;2022-10-19T20:13:45;101761.47;;;9.88;100.00
47897;BME280;39629;51.400;5.494;2022-10-19T20:18:48;101761.44;;;9.86;100.00
47897;BME280;39629;51.400;5.494;2022-10-19T20:23:51;101757.00;;;9.82;100.00
47897;BME280;39629;51.400;5.494;2022-10-19T20:28:52;101754.34;;;9.79;100.00
47897;BME280;39629;51.400;5.494;2022-10-19T20:33:54;101756.19;;;9.86;100.00
47897;BME280;39629;51.400;5.494;2022-10-19T20:38:57;101758.78;;;9.83;100.00
47897;BME280;39629;51.400;5.494;2022-10-19T20:43:59;101745.59;;;9.80;100.00
47897;BME280;39629;51.400;5.494;2022-10-19T20:49:00;101752.44;;;9.69;100.00
47897;BME280;39629;51.400;5.494;2022-10-19T20:54:05;101729.66;;;9.68;100.00
47897;BME280;39629;51.400;5.494;2022-10-19T20:59:10;101736.72;;;9.74;100.00
47897;BME280;39629;51.400;5.494;2022-10-19T21:04:13;101734.13;;;9.75;100.00
47897;BME280;39629;51.400;5.494;2022-10-19T21:09:18;101731.28;;;9.61;100.00
47897;BME280;39629;51.400;5.494;2022-10-19T21:14:22;101740.16;;;9.68;100.00
47897;BME280;39629;51.400;5.494;2022-10-19T21:19:25;101733.00;;;9.59;100.00
47897;BME280;39629;51.400;5.494;2022-10-19T21:24:31;101732.16;;;9.62;100.00
47897;BME280;39629;51.400;5.494;2022-10-19T21:29:33;101714.72;;;9.65;100.00
47897;BME280;39629;51.400;5.494;2022-10-19T21:34:34;101699.88;;;9.69;100.00
47897;BME280;39629;51.400;5.494;2022-10-19T21:39:37;101710.31;;;9.66;100.00
47897;BME280;39629;51.400;5.494;2022-10-19T21:44:39;101701.59;;;9.68;100.00
47897;BME280;39629;51.400;5.494;2022-10-19T21:49:40;101698.91;;;9.62;100.00
47897;BME280;39629;51.400;5.494;2022-10-19T21:54:43;101685.78;;;9.64;100.00
47897;BME280;39629;51.400;5.494;2022-10-19T21:59:45;101669.91;;;9.58;100.00
47897;BME280;39629;51.400;5.494;2022-10-19T22:04:46;101672.47;;;9.53;100.00
47897;BME280;39629;51.400;5.494;2022-10-19T22:09:49;101673.28;;;9.47;100.00
47897;BME280;39629;51.400;5.494;2022-10-19T22:14:51;101670.59;;;9.43;100.00
47897;BME280;39629;51.400;5.494;2022-10-19T22:19:53;101649.59;;;9.44;100.00
47897;BME280;39629;51.400;5.494;2022-10-19T22:24:56;101638.06;;;9.36;100.00
47897;BME280;39629;51.400;5.494;2022-10-19T22:29:57;101650.22;;;9.28;100.00
47897;BME280;39629;51.400;5.494;2022-10-19T22:34:59;101642.28;;;9.23;100.00
47897;BME280;39629;51.400;5.494;2022-10-19T22:40:02;101633.44;;;9.19;100.00
47897;BME280;39629;51.400;5.494;2022-10-19T22:45:05;101627.34;;;9.20;100.00
47897;BME280;39629;51.400;5.494;2022-10-19T22:50:07;101611.50;;;9.17;100.00
47897;BME280;39629;51.400;5.494;2022-10-19T22:55:12;101604.41;;;9.10;100.00
47897;BME280;39629;51.400;5.494;2022-10-19T23:00:14;101606.97;;;9.06;100.00
47897;BME280;39629;51.400;5.494;2022-10-19T23:05:15;101593.88;;;9.07;100.00
47897;BME280;39629;51.400;5.494;2022-10-19T23:10:18;101583.28;;;9.01;100.00
47897;BME280;39629;51.400;5.494;2022-10-19T23:15:20;101572.78;;;9.01;100.00
47897;BME280;39629;51.400;5.494;2022-10-19T23:20:22;101579.00;;;9.09;100.00
47897;BME280;39629;51.400;5.494;2022-10-19T23:25:25;101583.28;;;9.01;100.00
47897;BME280;39629;51.400;5.494;2022-10-19T23:30:27;101586.75;;;9.00;100.00
47897;BME280;39629;51.400;5.494;2022-10-19T23:35:28;101576.06;;;8.91;100.00
47897;BME280;39629;51.400;5.494;2022-10-19T23:40:32;101576.03;;;8.88;100.00
47897;BME280;39629;51.400;5.494;2022-10-19T23:45:33;101558.41;;;8.80;100.00
47897;BME280;39629;51.400;5.494;2022-10-19T23:50:35;101553.88;;;8.70;100.00
47897;BME280;39629;51.400;5.494;2022-10-19T23:55:38;101549.34;;;8.61;100.00
